createdAt,value
2023-02-12T00:02:11.822Z,100475.47
2023-02-12T00:04:40.343Z,100490.47
2023-02-12T00:07:08.741Z,100496.34
2023-02-12T00:09:38.183Z,100492.78
2023-02-12T00:12:09.174Z,100491.28
2023-02-12T00:14:39.298Z,100499.81
2023-02-12T00:17:07.726Z,100500.72
2023-02-12T00:19:38.259Z,100493.84
2023-02-12T00:22:07.460Z,100506.78
2023-02-12T00:24:35.765Z,100508.53
2023-02-12T00:27:04.556Z,100500.41
2023-02-12T00:29:32.900Z,100507.31
2023-02-12T00:32:02.885Z,100503.28
2023-02-12T00:34:31.267Z,100503.28
2023-02-12T00:36:59.658Z,100507.66
2023-02-12T00:39:28.477Z,100510.00
2023-02-12T00:41:56.877Z,100500.94
2023-02-12T00:44:25.425Z,100515.41
2023-02-12T00:46:53.783Z,100511.00
2023-02-12T00:49:23.811Z,100516.44
2023-02-12T00:51:52.165Z,100520.13
2023-02-12T00:54:22.531Z,100512.88
2023-02-12T00:56:50.876Z,100526.06
2023-02-12T00:59:19.238Z,100523.44
2023-02-12T01:01:47.729Z,100526.00
2023-02-12T01:04:17.049Z,100510.19
2023-02-12T01:06:47.269Z,100504.59
2023-02-12T01:09:16.253Z,100522.53
2023-02-12T01:11:46.674Z,100520.56
2023-02-12T01:14:15.090Z,100519.84
2023-02-12T01:16:43.506Z,100513.41
2023-02-12T01:19:12.995Z,100513.75
2023-02-12T01:21:41.423Z,100514.00
2023-02-12T01:24:11.759Z,100522.00
2023-02-12T01:26:40.106Z,100518.41
2023-02-12T01:29:08.957Z,100501.88
2023-02-12T01:31:39.881Z,100518.69
2023-02-12T01:34:09.073Z,100522.06
2023-02-12T01:36:37.451Z,100523.88
2023-02-12T01:39:07.132Z,100517.22
2023-02-12T01:41:40.489Z,100518.94
2023-02-12T01:44:13.089Z,100513.88
2023-02-12T01:46:42.505Z,100513.84
2023-02-12T01:49:15.627Z,100511.88
2023-02-12T01:51:48.444Z,100502.06
2023-02-12T01:54:21.375Z,100498.59
2023-02-12T01:56:51.152Z,100507.50
2023-02-12T01:59:46.614Z,100511.19
2023-02-12T02:02:15.391Z,100506.94
2023-02-12T02:04:50.560Z,100506.19
2023-02-12T02:07:18.962Z,100497.56
2023-02-12T02:09:47.892Z,100500.56
2023-02-12T02:12:50.216Z,100497.25
2023-02-12T02:15:18.940Z,100490.81
2023-02-12T02:17:54.179Z,100490.22
2023-02-12T02:21:00.625Z,100490.44
2023-02-12T02:23:48.763Z,100487.44
2023-02-12T02:26:45.993Z,100490.03
2023-02-12T02:29:43.190Z,100478.75
2023-02-12T02:32:18.177Z,100472.38
2023-02-12T02:34:54.472Z,100465.84
2023-02-12T02:37:30.770Z,100477.09
2023-02-12T02:40:03.839Z,100474.91
2023-02-12T02:42:37.011Z,100476.47
2023-02-12T02:45:13.131Z,100483.81
2023-02-12T02:47:46.794Z,100472.72
2023-02-12T02:50:18.335Z,100468.91
2023-02-12T02:52:51.914Z,100477.09
2023-02-12T02:55:23.409Z,100480.25
2023-02-12T02:57:57.054Z,100475.75
2023-02-12T03:00:32.816Z,100469.75
2023-02-12T03:03:08.891Z,100473.47
2023-02-12T03:05:41.039Z,100470.72
2023-02-12T03:08:13.424Z,100481.06
2023-02-12T03:10:45.771Z,100478.25
2023-02-12T03:13:18.239Z,100487.69
2023-02-12T03:15:50.924Z,100467.53
2023-02-12T03:18:24.557Z,100478.88
2023-02-12T03:20:56.561Z,100487.94
2023-02-12T03:23:29.058Z,100487.84
2023-02-12T03:26:00.494Z,100485.94
2023-02-12T03:28:32.600Z,100489.47
2023-02-12T03:31:12.150Z,100492.50
2023-02-12T03:33:59.413Z,100496.06
2023-02-12T03:36:32.056Z,100499.47
2023-02-12T03:39:09.646Z,100487.06
2023-02-12T03:41:44.630Z,100486.41
2023-02-12T03:44:24.073Z,100493.75
2023-02-12T03:47:04.062Z,100478.53
2023-02-12T03:49:38.029Z,100482.94
2023-02-12T03:52:06.772Z,100488.38
2023-02-12T03:54:37.085Z,100490.00
2023-02-12T03:57:10.643Z,100481.63
2023-02-12T03:59:41.410Z,100465.47
2023-02-12T04:02:10.481Z,100492.75
2023-02-12T04:04:40.489Z,100498.22
2023-02-12T04:07:09.137Z,100493.00
2023-02-12T04:09:37.601Z,100503.53
2023-02-12T04:12:23.379Z,100504.72
2023-02-12T04:15:01.078Z,100503.53
2023-02-12T04:17:40.130Z,100505.22
2023-02-12T04:20:18.638Z,100500.22
2023-02-12T04:22:56.107Z,100503.25
2023-02-12T04:25:38.068Z,100504.72
2023-02-12T04:28:14.738Z,100507.28
2023-02-12T04:30:48.733Z,100508.41
2023-02-12T04:33:20.635Z,100517.81
2023-02-12T04:35:55.470Z,100512.19
2023-02-12T04:38:29.010Z,100516.38
2023-02-12T04:40:57.871Z,100515.84
2023-02-12T04:43:30.495Z,100509.94
2023-02-12T04:45:59.151Z,100518.78
2023-02-12T04:48:27.780Z,100517.78
2023-02-12T04:50:57.592Z,100524.41
2023-02-12T04:53:25.946Z,100518.88
2023-02-12T04:55:55.449Z,100523.59
2023-02-12T04:58:23.960Z,100524.25
2023-02-12T05:00:52.350Z,100508.19
2023-02-12T05:03:20.602Z,100514.88
2023-02-12T05:05:48.920Z,100506.72
2023-02-12T05:08:18.710Z,100517.72
2023-02-12T05:10:47.089Z,100509.53
2023-02-12T05:13:15.422Z,100511.22
2023-02-12T05:15:43.865Z,100509.97
2023-02-12T05:18:12.302Z,100506.81
2023-02-12T05:20:40.604Z,100512.41
2023-02-12T05:23:11.317Z,100508.00
2023-02-12T05:25:41.125Z,100509.09
2023-02-12T05:28:09.551Z,100506.69
2023-02-12T05:30:37.939Z,100510.75
2023-02-12T05:33:06.264Z,100490.13
2023-02-12T05:35:35.718Z,100516.38
2023-02-12T05:38:04.117Z,100509.19
2023-02-12T05:40:32.533Z,100518.00
2023-02-12T05:43:02.605Z,100507.78
2023-02-12T05:45:30.917Z,100509.88
2023-02-12T05:47:59.239Z,100515.28
2023-02-12T05:50:27.553Z,100518.31
2023-02-12T05:53:01.622Z,100511.84
2023-02-12T05:55:30.073Z,100516.44
2023-02-12T05:57:58.413Z,100513.25
2023-02-12T06:00:28.246Z,100514.16
2023-02-12T06:02:56.638Z,100510.91
2023-02-12T06:05:25.010Z,100488.38
2023-02-12T06:07:53.310Z,100508.50
2023-02-12T06:10:21.849Z,100500.09
2023-02-12T06:12:55.378Z,100511.19
2023-02-12T06:15:23.766Z,100522.16
2023-02-12T06:17:53.961Z,100521.00
2023-02-12T06:20:22.304Z,100513.53
2023-02-12T06:22:50.637Z,100510.41
2023-02-12T06:25:19.105Z,100517.50
2023-02-12T06:27:47.585Z,100525.47
2023-02-12T06:30:16.746Z,100523.13
2023-02-12T06:32:45.059Z,100531.66
2023-02-12T06:35:15.022Z,100536.16
2023-02-12T06:37:43.531Z,100535.91
2023-02-12T06:40:12.361Z,100542.66
2023-02-12T06:42:40.908Z,100539.31
2023-02-12T06:45:09.839Z,100546.00
2023-02-12T06:47:38.250Z,100550.50
2023-02-12T06:50:08.150Z,100553.19
2023-02-12T06:52:37.928Z,100557.88
2023-02-12T06:55:06.712Z,100561.72
2023-02-12T06:57:35.123Z,100555.72
2023-02-12T07:00:08.506Z,100556.50
2023-02-12T07:02:39.003Z,100566.00
2023-02-12T07:05:07.660Z,100560.28
2023-02-12T07:07:37.945Z,100572.84
2023-02-12T07:10:08.651Z,100562.25
2023-02-12T07:12:37.086Z,100561.09
2023-02-12T07:15:05.934Z,100559.78
2023-02-12T07:17:34.701Z,100569.78
2023-02-12T07:20:03.384Z,100562.72
2023-02-12T07:22:32.228Z,100567.88
2023-02-12T07:25:01.874Z,100560.81
2023-02-12T07:27:30.989Z,100562.66
2023-02-12T07:29:59.402Z,100558.00
2023-02-12T07:32:27.718Z,100552.66
2023-02-12T07:34:56.018Z,100555.66
2023-02-12T07:37:24.299Z,100554.84
2023-02-12T07:39:52.840Z,100523.16
2023-02-12T07:42:22.490Z,100565.09
2023-02-12T07:44:51.772Z,100553.47
2023-02-12T07:47:20.114Z,100550.75
2023-02-12T07:49:48.442Z,100548.28
2023-02-12T07:52:16.734Z,100552.63
2023-02-12T07:54:45.186Z,100558.72
2023-02-12T07:57:13.670Z,100559.09
2023-02-12T07:59:43.272Z,100551.16
2023-02-12T08:02:11.725Z,100556.28
2023-02-12T08:04:40.212Z,100554.22
2023-02-12T08:07:10.961Z,100558.38
2023-02-12T08:09:39.344Z,100542.38
2023-02-12T08:12:08.078Z,100547.28
2023-02-12T08:14:36.539Z,100557.25
2023-02-12T08:17:06.263Z,100544.34
2023-02-12T08:19:34.548Z,100538.19
2023-02-12T08:22:06.542Z,100547.25
2023-02-12T08:24:35.074Z,100538.97
2023-02-12T08:27:03.468Z,100552.69
2023-02-12T08:29:31.855Z,100551.78
2023-02-12T08:32:01.955Z,100558.00
2023-02-12T08:34:33.340Z,100561.00
2023-02-12T08:37:02.190Z,100549.03
2023-02-12T08:39:32.929Z,100557.47
2023-02-12T08:42:01.673Z,100561.81
2023-02-12T08:44:30.648Z,100567.63
2023-02-12T08:46:59.078Z,100562.00
2023-02-12T08:49:29.760Z,100560.44
2023-02-12T08:52:01.706Z,100560.16
2023-02-12T08:54:32.286Z,100538.94
2023-02-12T08:57:02.824Z,100558.75
2023-02-12T08:59:31.375Z,100564.31
2023-02-12T09:02:00.716Z,100566.94
2023-02-12T09:04:30.222Z,100566.53
2023-02-12T09:07:00.050Z,100568.78
2023-02-12T09:09:28.750Z,100564.09
2023-02-12T09:11:57.054Z,100575.94
2023-02-12T09:14:25.458Z,100574.38
2023-02-12T09:16:54.631Z,100579.38
2023-02-12T09:19:23.285Z,100574.22
2023-02-12T09:21:55.507Z,100583.63
2023-02-12T09:24:27.364Z,100576.81
2023-02-12T09:26:55.759Z,100576.94
2023-02-12T09:29:24.393Z,100573.56
2023-02-12T09:31:53.070Z,100568.63
2023-02-12T09:34:21.480Z,100574.78
2023-02-12T09:36:49.754Z,100560.09
2023-02-12T09:39:18.135Z,100570.38
2023-02-12T09:42:29.873Z,100568.88
2023-02-12T09:45:15.246Z,100576.63
2023-02-12T09:47:48.894Z,100570.56
2023-02-12T09:50:49.692Z,100575.25
2023-02-12T09:53:22.285Z,100573.59
2023-02-12T09:56:18.429Z,100577.63
2023-02-12T09:58:52.667Z,100588.06
2023-02-12T10:01:24.135Z,100579.16
2023-02-12T10:03:53.816Z,100584.06
2023-02-12T10:06:24.548Z,100573.56
2023-02-12T10:09:06.436Z,100574.41
2023-02-12T10:11:56.591Z,100581.69
2023-02-12T10:14:53.080Z,100573.75
2023-02-12T10:17:31.251Z,100575.75
2023-02-12T10:20:17.805Z,100568.84
2023-02-12T10:22:59.467Z,100571.91
2023-02-12T10:25:33.792Z,100574.06
2023-02-12T10:28:13.321Z,100562.53
2023-02-12T10:30:49.923Z,100571.56
2023-02-12T10:33:21.852Z,100574.91
2023-02-12T10:35:55.138Z,100569.50
2023-02-12T10:38:28.786Z,100555.38
2023-02-12T10:41:01.731Z,100570.25
2023-02-12T10:43:30.594Z,100573.06
2023-02-12T10:46:00.399Z,100566.41
2023-02-12T10:48:34.213Z,100561.31
2023-02-12T10:51:17.297Z,100557.25
2023-02-12T10:53:47.055Z,100557.69
2023-02-12T10:56:19.424Z,100555.91
2023-02-12T10:58:56.755Z,100547.84
2023-02-12T11:01:29.175Z,100554.50
2023-02-12T11:03:59.659Z,100539.63
2023-02-12T11:06:30.498Z,100547.34
2023-02-12T11:09:00.379Z,100550.88
2023-02-12T11:11:31.046Z,100535.75
2023-02-12T11:14:03.736Z,100532.66
2023-02-12T11:16:35.762Z,100546.16
2023-02-12T11:19:06.803Z,100521.38
2023-02-12T11:21:39.294Z,100542.03
2023-02-12T11:24:30.957Z,100541.34
2023-02-12T11:27:23.445Z,100540.41
2023-02-12T11:30:14.431Z,100527.06
2023-02-12T11:32:44.297Z,100543.53
2023-02-12T11:35:18.298Z,100530.03
2023-02-12T11:37:48.368Z,100533.41
2023-02-12T11:40:23.080Z,100530.31
2023-02-12T11:42:54.318Z,100526.06
2023-02-12T11:45:26.636Z,100535.16
2023-02-12T11:47:56.564Z,100524.78
2023-02-12T11:50:28.200Z,100527.91
2023-02-12T11:53:09.393Z,100529.50
2023-02-12T11:55:40.357Z,100526.19
2023-02-12T11:58:17.871Z,100523.97
2023-02-12T12:00:52.133Z,100522.44
2023-02-12T12:03:26.268Z,100523.81
2023-02-12T12:06:00.564Z,100515.91
2023-02-12T12:08:32.962Z,100514.38
2023-02-12T12:11:08.104Z,100512.63
2023-02-12T12:13:42.521Z,100508.38
2023-02-12T12:16:32.072Z,100507.72
2023-02-12T12:19:25.270Z,100499.78
2023-02-12T12:22:03.667Z,100493.72
2023-02-12T12:24:41.482Z,100488.53
2023-02-12T12:27:39.072Z,100493.06
2023-02-12T12:30:17.039Z,100488.00
2023-02-12T12:32:49.048Z,100488.03
2023-02-12T12:35:26.206Z,100492.28
2023-02-12T12:38:01.381Z,100496.75
2023-02-12T12:40:47.933Z,100498.09
2023-02-12T12:43:27.229Z,100499.28
2023-02-12T12:46:24.604Z,100493.72
2023-02-12T12:49:07.910Z,100498.34
2023-02-12T12:51:54.995Z,100487.47
2023-02-12T12:54:35.028Z,100485.34
2023-02-12T12:57:11.528Z,100462.69
2023-02-12T12:59:58.376Z,100474.63
2023-02-12T13:03:02.856Z,100466.72
2023-02-12T13:05:47.688Z,100466.56
2023-02-12T13:08:33.465Z,100466.28
2023-02-12T13:11:14.094Z,100470.13
2023-02-12T13:13:47.055Z,100444.69
2023-02-12T13:16:22.896Z,100456.03
2023-02-12T13:18:59.975Z,100456.00
2023-02-12T13:21:39.466Z,100438.34
2023-02-12T13:24:24.501Z,100443.94
2023-02-12T13:26:58.761Z,100442.38
2023-02-12T13:29:30.744Z,100431.19
2023-02-12T13:32:04.472Z,100441.75
2023-02-12T13:34:36.640Z,100436.97
2023-02-12T13:37:07.680Z,100443.72
2023-02-12T13:39:40.559Z,100435.75
2023-02-12T13:42:22.004Z,100439.97
2023-02-12T13:44:59.281Z,100428.84
2023-02-12T13:47:33.274Z,100422.72
2023-02-12T13:50:09.181Z,100426.94
2023-02-12T13:52:42.578Z,100425.47
2023-02-12T13:55:24.825Z,100415.59
2023-02-12T13:58:38.696Z,100417.78
2023-02-12T14:01:09.335Z,100416.66
2023-02-12T14:03:39.140Z,100406.88
2023-02-12T14:06:16.470Z,100408.31
2023-02-12T14:08:48.026Z,100411.69
2023-02-12T14:11:20.380Z,100407.97
2023-02-12T14:13:54.763Z,100410.00
2023-02-12T14:16:39.781Z,100405.63
2023-02-12T14:19:45.593Z,100410.31
2023-02-12T14:22:15.580Z,100408.00
2023-02-12T14:24:54.480Z,100406.94
2023-02-12T14:27:31.771Z,100404.44
2023-02-12T14:30:29.821Z,100399.75
2023-02-12T14:33:27.940Z,100405.66
2023-02-12T14:36:17.773Z,100403.97
2023-02-12T14:39:04.808Z,100411.66
2023-02-12T14:41:41.380Z,100384.47
2023-02-12T14:44:43.266Z,100398.22
2023-02-12T14:47:45.177Z,100400.88
2023-02-12T14:50:23.129Z,100408.09
2023-02-12T14:52:59.766Z,100399.44
2023-02-12T14:55:34.288Z,100391.25
2023-02-12T14:58:06.963Z,100407.44
2023-02-12T15:00:41.235Z,100404.81
2023-02-12T15:03:22.376Z,100407.78
2023-02-12T15:06:04.722Z,100401.28
2023-02-12T15:08:41.037Z,100387.06
2023-02-12T15:11:21.246Z,100396.44
2023-02-12T15:13:54.462Z,100393.09
2023-02-12T15:16:35.601Z,100396.09
2023-02-12T15:19:14.759Z,100392.25
2023-02-12T15:21:46.097Z,100389.56
2023-02-12T15:24:21.669Z,100386.13
2023-02-12T15:26:51.919Z,100380.47
2023-02-12T15:29:23.125Z,100391.00
2023-02-12T15:31:53.980Z,100388.56
2023-02-12T15:34:26.314Z,100382.22
2023-02-12T15:36:57.649Z,100381.38
2023-02-12T15:39:27.318Z,100368.63
2023-02-12T15:41:55.819Z,100379.25
2023-02-12T15:44:27.766Z,100375.03
2023-02-12T15:47:05.308Z,100376.72
2023-02-12T15:49:35.941Z,100362.41
2023-02-12T15:52:09.512Z,100367.84
2023-02-12T15:54:39.278Z,100367.41
2023-02-12T15:57:12.369Z,100370.94
2023-02-12T15:59:42.213Z,100366.19
2023-02-12T16:02:21.342Z,100361.59
2023-02-12T16:04:49.925Z,100369.16
2023-02-12T16:07:21.424Z,100356.75
2023-02-12T16:09:52.135Z,100362.38
2023-02-12T16:12:23.909Z,100355.91
2023-02-12T16:14:54.714Z,100359.81
2023-02-12T16:17:28.302Z,100359.38
2023-02-12T16:19:58.662Z,100355.19
2023-02-12T16:22:33.841Z,100364.13
2023-02-12T16:25:14.733Z,100361.91
2023-02-12T16:27:54.674Z,100361.94
2023-02-12T16:30:29.556Z,100368.63
2023-02-12T16:32:58.420Z,100373.81
2023-02-12T16:35:30.283Z,100367.47
2023-02-12T16:38:03.533Z,100364.22
2023-02-12T16:40:37.525Z,100373.47
2023-02-12T16:43:23.730Z,100377.63
2023-02-12T16:46:01.617Z,100379.88
2023-02-12T16:48:31.162Z,100370.28
2023-02-12T16:51:02.738Z,100379.88
2023-02-12T16:53:43.083Z,100378.22
2023-02-12T16:56:20.963Z,100376.44
2023-02-12T16:58:55.196Z,100382.31
2023-02-12T17:01:28.517Z,100380.72
2023-02-12T17:03:58.408Z,100392.47
2023-02-12T17:06:30.688Z,100380.06
2023-02-12T17:09:01.180Z,100392.28
2023-02-12T17:11:30.385Z,100371.03
2023-02-12T17:13:58.716Z,100388.94
2023-02-12T17:16:31.723Z,100396.63
2023-02-12T17:19:01.696Z,100401.81
2023-02-12T17:21:37.750Z,100409.88
2023-02-12T17:24:10.129Z,100400.75
2023-02-12T17:26:38.501Z,100411.69
2023-02-12T17:29:08.966Z,100408.34
2023-02-12T17:31:37.728Z,100410.28
2023-02-12T17:34:06.876Z,100401.81
2023-02-12T17:36:35.912Z,100407.00
2023-02-12T17:39:07.901Z,100415.81
2023-02-12T17:41:36.332Z,100414.75
2023-02-12T17:44:05.120Z,100413.66
2023-02-12T17:46:34.436Z,100398.69
2023-02-12T17:49:02.918Z,100413.78
2023-02-12T17:51:31.348Z,100419.19
2023-02-12T17:53:59.691Z,100423.44
2023-02-12T17:56:29.901Z,100421.81
2023-02-12T17:58:58.362Z,100424.47
2023-02-12T18:01:26.777Z,100421.09
2023-02-12T18:03:56.948Z,100427.63
2023-02-12T18:06:27.061Z,100420.50
2023-02-12T18:08:56.541Z,100416.75
2023-02-12T18:11:29.734Z,100420.50
2023-02-12T18:13:58.916Z,100430.19
2023-02-12T18:16:30.057Z,100429.00
2023-02-12T18:18:59.889Z,100431.69
2023-02-12T18:21:28.867Z,100436.53
2023-02-12T18:23:57.276Z,100434.56
2023-02-12T18:26:25.622Z,100439.06
2023-02-12T18:28:58.339Z,100439.75
2023-02-12T18:31:28.136Z,100433.53
2023-02-12T18:33:56.578Z,100433.16
2023-02-12T18:36:25.011Z,100437.44
2023-02-12T18:38:54.150Z,100438.44
2023-02-12T18:41:27.280Z,100433.59
2023-02-12T18:43:58.554Z,100441.19
2023-02-12T18:46:28.842Z,100431.63
2023-02-12T18:48:58.272Z,100433.88
2023-02-12T18:51:28.941Z,100437.22
2023-02-12T18:54:01.303Z,100432.91
2023-02-12T18:56:30.482Z,100436.59
2023-02-12T18:59:05.370Z,100419.28
2023-02-12T19:01:35.575Z,100431.25
2023-02-12T19:04:06.646Z,100435.88
2023-02-12T19:06:40.085Z,100441.59
2023-02-12T19:09:08.608Z,100440.38
2023-02-12T19:11:38.239Z,100432.78
2023-02-12T19:14:08.083Z,100428.94
2023-02-12T19:16:36.457Z,100436.13
2023-02-12T19:19:04.898Z,100437.66
2023-02-12T19:21:33.298Z,100442.41
2023-02-12T19:24:03.645Z,100443.09
2023-02-12T19:26:33.808Z,100437.72
2023-02-12T19:29:03.263Z,100437.69
2023-02-12T19:31:35.022Z,100432.59
2023-02-12T19:34:08.538Z,100441.25
2023-02-12T19:36:38.002Z,100438.41
2023-02-12T19:39:06.897Z,100442.97
2023-02-12T19:41:40.680Z,100420.03
2023-02-12T19:44:12.881Z,100445.13
2023-02-12T19:46:42.986Z,100447.81
2023-02-12T19:49:15.472Z,100453.75
2023-02-12T19:51:44.461Z,100456.91
2023-02-12T19:54:17.052Z,100459.28
2023-02-12T19:56:46.122Z,100462.63
2023-02-12T19:59:17.076Z,100456.34
2023-02-12T20:01:47.712Z,100460.03
2023-02-12T20:04:18.851Z,100463.00
2023-02-12T20:06:49.039Z,100463.38
2023-02-12T20:09:20.964Z,100459.91
2023-02-12T20:11:49.728Z,100463.75
2023-02-12T20:14:20.764Z,100466.13
2023-02-12T20:16:51.695Z,100461.59
2023-02-12T20:19:22.793Z,100466.81
2023-02-12T20:21:55.217Z,100462.09
2023-02-12T20:24:27.815Z,100465.81
2023-02-12T20:26:57.225Z,100463.84
2023-02-12T20:29:25.563Z,100469.53
2023-02-12T20:31:55.401Z,100468.97
2023-02-12T20:34:23.925Z,100479.34
2023-02-12T20:36:53.830Z,100471.38
2023-02-12T20:39:22.763Z,100422.84
2023-02-12T20:41:51.772Z,100467.91
2023-02-12T20:44:22.359Z,100467.03
2023-02-12T20:46:56.003Z,100469.81
2023-02-12T20:49:26.986Z,100469.84
2023-02-12T20:51:55.505Z,100467.25
2023-02-12T20:54:24.026Z,100462.38
2023-02-12T20:56:52.353Z,100469.22
2023-02-12T20:59:20.841Z,100472.63
2023-02-12T21:01:51.848Z,100465.53
2023-02-12T21:04:20.951Z,100469.94
2023-02-12T21:06:50.652Z,100469.72
2023-02-12T21:09:19.858Z,100443.94
2023-02-12T21:11:48.745Z,100462.28
2023-02-12T21:14:22.204Z,100458.50
2023-02-12T21:16:52.251Z,100449.00
2023-02-12T21:19:21.049Z,100435.53
2023-02-12T21:21:53.574Z,100466.56
2023-02-12T21:24:23.506Z,100455.66
2023-02-12T21:26:52.538Z,100465.59
2023-02-12T21:29:23.600Z,100456.38
2023-02-12T21:31:52.453Z,100458.63
2023-02-12T21:34:23.335Z,100458.66
2023-02-12T21:36:55.090Z,100465.28
2023-02-12T21:39:26.411Z,100456.84
2023-02-12T21:41:59.984Z,100458.50
2023-02-12T21:44:28.849Z,100459.38
2023-02-12T21:46:58.618Z,100452.72
2023-02-12T21:49:27.725Z,100452.91
2023-02-12T21:51:59.735Z,100458.53
2023-02-12T21:54:28.957Z,100441.53
2023-02-12T21:56:58.620Z,100443.63
2023-02-12T22:02:36.377Z,100433.09
2023-02-12T22:05:04.855Z,100450.38
2023-02-12T22:07:33.254Z,100456.66
2023-02-12T22:10:03.978Z,100447.22
2023-02-12T22:12:32.315Z,100460.75
2023-02-12T22:15:00.812Z,100447.38
2023-02-12T22:17:29.158Z,100448.91
2023-02-12T22:19:58.772Z,100461.16
2023-02-12T22:22:27.889Z,100461.06
2023-02-12T22:24:56.269Z,100459.31
2023-02-12T22:27:24.635Z,100446.56
2023-02-12T22:29:53.286Z,100454.69
2023-02-12T22:32:21.843Z,100460.19
2023-02-12T22:34:50.402Z,100462.13
2023-02-12T22:37:20.296Z,100458.91
2023-02-12T22:39:48.661Z,100469.69
2023-02-12T22:42:16.997Z,100474.31
2023-02-12T22:44:45.416Z,100470.38
2023-02-12T22:47:15.768Z,100472.19
2023-02-12T22:49:44.088Z,100476.13
2023-02-12T22:52:12.409Z,100483.75
2023-02-12T22:54:42.274Z,100475.63
2023-02-12T22:57:10.634Z,100474.63
2023-02-12T22:59:38.927Z,100485.34
2023-02-12T23:02:07.285Z,100476.44
2023-02-12T23:04:36.551Z,100478.84
2023-02-12T23:07:04.882Z,100472.94
2023-02-12T23:09:33.379Z,100466.03
2023-02-12T23:12:07.442Z,100470.88
2023-02-12T23:14:37.837Z,100476.75
2023-02-12T23:17:06.212Z,100480.31
2023-02-12T23:19:34.489Z,100483.00
2023-02-12T23:22:02.870Z,100471.91
2023-02-12T23:24:31.305Z,100466.03
2023-02-12T23:26:59.608Z,100467.03
2023-02-12T23:29:29.368Z,100471.06
2023-02-12T23:31:57.720Z,100471.16
2023-02-12T23:34:26.165Z,100471.78
2023-02-12T23:36:54.491Z,100470.84
2023-02-12T23:39:22.828Z,100474.28
2023-02-12T23:41:51.236Z,100473.41
2023-02-12T23:44:19.553Z,100465.06
2023-02-12T23:46:51.908Z,100465.94
2023-02-12T23:49:20.284Z,100476.91
2023-02-12T23:51:48.680Z,100468.69
2023-02-12T23:54:17.012Z,100471.81
2023-02-12T23:56:47.686Z,100467.41
2023-02-12T23:59:16.060Z,100445.00
